Airport View

Enter AWOS ICAO identifier for current METAR.

ex. KFNL

KRWV 041355Z AUTO 25010KT 10SM BKN010 26/24 A2999 RMK AO2 T02600239

4 Jul 2020 14:19

Frequency: 118.35

Phone: 979-567-6784

Other Area AWOS: KCLL - KLHB - KCFD - K11R

TAF KCLL 041124Z 0412/0512 VRB03KT P6SM SKC FM041800 22008KT P6SM SCT250 FM042300 17007KT P6SM FEW250 FM050300 VRB04KT P6SM FEW250